sensor_id;sensor_type;location;lat;lon;timestamp;temperature;humidity
15103;DHT22;7652;53.584;9.998;2022-08-11T00:00:18;19.50;99.90
15103;DHT22;7652;53.584;9.998;2022-08-11T00:03:22;19.50;99.90
15103;DHT22;7652;53.584;9.998;2022-08-11T00:06:44;19.60;99.90
15103;DHT22;7652;53.584;9.998;2022-08-11T00:09:50;19.60;99.90
15103;DHT22;7652;53.584;9.998;2022-08-11T00:12:56;19.50;99.90
15103;DHT22;7652;53.584;9.998;2022-08-11T00:16:01;19.50;99.90
15103;DHT22;7652;53.584;9.998;2022-08-11T00:19:06;19.30;99.90
15103;DHT22;7652;53.584;9.998;2022-08-11T00:22:10;19.30;99.90
15103;DHT22;7652;53.584;9.998;2022-08-11T00:25:15;19.30;99.90
15103;DHT22;7652;53.584;9.998;2022-08-11T00:28:23;19.30;99.90
15103;DHT22;7652;53.584;9.998;2022-08-11T00:31:30;19.20;99.90
15103;DHT22;7652;53.584;9.998;2022-08-11T00:34:36;19.10;99.90
15103;DHT22;7652;53.584;9.998;2022-08-11T00:37:44;19.10;99.90
15103;DHT22;7652;53.584;9.998;2022-08-11T00:40:55;19.00;99.90
15103;DHT22;7652;53.584;9.998;2022-08-11T00:44:26;19.00;99.90
15103;DHT22;7652;53.584;9.998;2022-08-11T00:47:45;19.00;99.90
15103;DHT22;7652;53.584;9.998;2022-08-11T00:51:05;19.00;99.90
15103;DHT22;7652;53.584;9.998;2022-08-11T00:54:30;19.00;99.90
15103;DHT22;7652;53.584;9.998;2022-08-11T00:58:08;19.00;99.90
15103;DHT22;7652;53.584;9.998;2022-08-11T01:01:33;18.90;99.90
15103;DHT22;7652;53.584;9.998;2022-08-11T01:05:12;18.90;99.90
15103;DHT22;7652;53.584;9.998;2022-08-11T01:08:55;18.90;99.90
15103;DHT22;7652;53.584;9.998;2022-08-11T01:12:32;18.90;99.90
15103;DHT22;7652;53.584;9.998;2022-08-11T01:16:05;18.80;99.90
15103;DHT22;7652;53.584;9.998;2022-08-11T01:19:45;18.80;99.90
15103;DHT22;7652;53.584;9.998;2022-08-11T01:27:26;18.70;99.90
15103;DHT22;7652;53.584;9.998;2022-08-11T01:31:09;18.60;99.90
15103;DHT22;7652;53.584;9.998;2022-08-11T01:35:05;18.60;99.90
15103;DHT22;7652;53.584;9.998;2022-08-11T01:38:47;18.60;99.90
15103;DHT22;7652;53.584;9.998;2022-08-11T01:42:14;18.50;99.90
15103;DHT22;7652;53.584;9.998;2022-08-11T01:45:45;18.50;99.90
15103;DHT22;7652;53.584;9.998;2022-08-11T01:49:00;18.40;99.90
15103;DHT22;7652;53.584;9.998;2022-08-11T01:52:29;18.40;99.90
15103;DHT22;7652;53.584;9.998;2022-08-11T01:55:42;18.40;99.90
15103;DHT22;7652;53.584;9.998;2022-08-11T01:58:58;18.40;99.90
15103;DHT22;7652;53.584;9.998;2022-08-11T02:02:21;18.40;99.90
15103;DHT22;7652;53.584;9.998;2022-08-11T02:05:59;18.30;99.90
15103;DHT22;7652;53.584;9.998;2022-08-11T02:09:11;18.20;99.90
15103;DHT22;7652;53.584;9.998;2022-08-11T02:12:35;18.20;99.90
15103;DHT22;7652;53.584;9.998;2022-08-11T02:15:55;18.20;99.90
15103;DHT22;7652;53.584;9.998;2022-08-11T02:19:19;18.20;99.90
15103;DHT22;7652;53.584;9.998;2022-08-11T02:22:51;18.20;99.90
15103;DHT22;7652;53.584;9.998;2022-08-11T02:26:21;18.20;99.90
15103;DHT22;7652;53.584;9.998;2022-08-11T02:29:31;18.10;99.90
15103;DHT22;7652;53.584;9.998;2022-08-11T02:32:38;18.00;99.90
15103;DHT22;7652;53.584;9.998;2022-08-11T02:36:08;17.90;99.90
15103;DHT22;7652;53.584;9.998;2022-08-11T02:39:14;17.90;99.90
15103;DHT22;7652;53.584;9.998;2022-08-11T02:42:26;17.90;99.90
15103;DHT22;7652;53.584;9.998;2022-08-11T02:45:55;17.80;99.90
15103;DHT22;7652;53.584;9.998;2022-08-11T02:49:10;17.70;99.90
15103;DHT22;7652;53.584;9.998;2022-08-11T02:52:42;17.70;99.90
15103;DHT22;7652;53.584;9.998;2022-08-11T02:55:53;17.60;99.90
15103;DHT22;7652;53.584;9.998;2022-08-11T02:59:05;17.60;99.90
15103;DHT22;7652;53.584;9.998;2022-08-11T03:02:54;17.60;99.90
15103;DHT22;7652;53.584;9.998;2022-08-11T03:06:07;17.70;99.90
15103;DHT22;7652;53.584;9.998;2022-08-11T03:09:19;17.60;99.90
15103;DHT22;7652;53.584;9.998;2022-08-11T03:12:31;17.70;99.90
15103;DHT22;7652;53.584;9.998;2022-08-11T03:16:15;17.60;99.90
15103;DHT22;7652;53.584;9.998;2022-08-11T03:19:59;17.60;99.90
15103;DHT22;7652;53.584;9.998;2022-08-11T03:23:10;17.60;99.90
15103;DHT22;7652;53.584;9.998;2022-08-11T03:26:27;17.60;99.90
15103;DHT22;7652;53.584;9.998;2022-08-11T03:29:36;17.60;99.90
15103;DHT22;7652;53.584;9.998;2022-08-11T03:32:55;17.70;99.90
15103;DHT22;7652;53.584;9.998;2022-08-11T03:36:29;17.60;99.90
15103;DHT22;7652;53.584;9.998;2022-08-11T03:40:06;17.60;99.90
15103;DHT22;7652;53.584;9.998;2022-08-11T03:43:23;17.60;99.90
15103;DHT22;7652;53.584;9.998;2022-08-11T03:46:44;17.60;99.90
15103;DHT22;7652;53.584;9.998;2022-08-11T03:50:07;17.60;99.90
15103;DHT22;7652;53.584;9.998;2022-08-11T03:53:16;17.60;99.90
15103;DHT22;7652;53.584;9.998;2022-08-11T04:04:06;17.50;99.90
15103;DHT22;7652;53.584;9.998;2022-08-11T04:07:32;17.40;99.90
15103;DHT22;7652;53.584;9.998;2022-08-11T04:14:58;17.40;99.90
15103;DHT22;7652;53.584;9.998;2022-08-11T04:18:46;17.50;99.90
15103;DHT22;7652;53.584;9.998;2022-08-11T04:22:07;17.50;99.90
15103;DHT22;7652;53.584;9.998;2022-08-11T04:25:28;17.50;99.90
15103;DHT22;7652;53.584;9.998;2022-08-11T04:28:54;17.50;99.90
15103;DHT22;7652;53.584;9.998;2022-08-11T04:32:16;17.60;99.90
15103;DHT22;7652;53.584;9.998;2022-08-11T04:35:38;17.50;99.90
15103;DHT22;7652;53.584;9.998;2022-08-11T04:39:07;17.50;99.90
15103;DHT22;7652;53.584;9.998;2022-08-11T04:42:52;17.50;99.90
15103;DHT22;7652;53.584;9.998;2022-08-11T04:50:16;17.60;99.90
15103;DHT22;7652;53.584;9.998;2022-08-11T04:53:49;17.60;99.90
15103;DHT22;7652;53.584;9.998;2022-08-11T04:57:19;17.70;99.90
15103;DHT22;7652;53.584;9.998;2022-08-11T05:00:53;17.70;99.90
15103;DHT22;7652;53.584;9.998;2022-08-11T05:04:40;17.80;99.90
15103;DHT22;7652;53.584;9.998;2022-08-11T05:08:34;17.80;99.90
15103;DHT22;7652;53.584;9.998;2022-08-11T05:12:01;17.90;99.90
15103;DHT22;7652;53.584;9.998;2022-08-11T05:15:12;17.90;99.90
15103;DHT22;7652;53.584;9.998;2022-08-11T05:18:47;18.00;99.90
15103;DHT22;7652;53.584;9.998;2022-08-11T05:22:11;18.10;99.90
15103;DHT22;7652;53.584;9.998;2022-08-11T05:25:34;18.20;99.90
15103;DHT22;7652;53.584;9.998;2022-08-11T05:29:27;18.30;99.90
15103;DHT22;7652;53.584;9.998;2022-08-11T05:32:58;18.40;99.90
15103;DHT22;7652;53.584;9.998;2022-08-11T05:36:35;18.50;99.90
15103;DHT22;7652;53.584;9.998;2022-08-11T05:39:44;19.00;99.90
15103;DHT22;7652;53.584;9.998;2022-08-11T05:43:12;19.40;99.90
15103;DHT22;7652;53.584;9.998;2022-08-11T05:46:38;19.90;99.90
15103;DHT22;7652;53.584;9.998;2022-08-11T05:50:00;20.40;99.90
15103;DHT22;7652;53.584;9.998;2022-08-11T05:53:34;20.70;99.90
15103;DHT22;7652;53.584;9.998;2022-08-11T05:56:56;21.30;99.90
15103;DHT22;7652;53.584;9.998;2022-08-11T06:00:04;21.60;99.90
15103;DHT22;7652;53.584;9.998;2022-08-11T06:03:19;22.00;99.90
15103;DHT22;7652;53.584;9.998;2022-08-11T06:06:26;22.30;99.90
15103;DHT22;7652;53.584;9.998;2022-08-11T06:09:32;22.70;99.90
15103;DHT22;7652;53.584;9.998;2022-08-11T06:12:37;22.90;99.90
15103;DHT22;7652;53.584;9.998;2022-08-11T06:15:45;23.10;99.90
15103;DHT22;7652;53.584;9.998;2022-08-11T06:18:49;23.00;99.90
15103;DHT22;7652;53.584;9.998;2022-08-11T06:21:53;23.20;99.90
15103;DHT22;7652;53.584;9.998;2022-08-11T06:24:59;23.30;99.90
15103;DHT22;7652;53.584;9.998;2022-08-11T06:28:04;23.60;99.90
15103;DHT22;7652;53.584;9.998;2022-08-11T06:31:12;23.90;99.90
15103;DHT22;7652;53.584;9.998;2022-08-11T06:34:30;24.30;99.90
15103;DHT22;7652;53.584;9.998;2022-08-11T06:37:42;24.20;99.90
15103;DHT22;7652;53.584;9.998;2022-08-11T06:40:58;24.00;99.90
15103;DHT22;7652;53.584;9.998;2022-08-11T06:44:26;23.60;99.90
15103;DHT22;7652;53.584;9.998;2022-08-11T06:47:30;23.20;99.90
15103;DHT22;7652;53.584;9.998;2022-08-11T06:50:34;22.90;99.90
15103;DHT22;7652;53.584;9.998;2022-08-11T06:53:58;22.70;99.90
15103;DHT22;7652;53.584;9.998;2022-08-11T06:57:08;22.60;99.90
15103;DHT22;7652;53.584;9.998;2022-08-11T07:00:33;22.50;99.90
15103;DHT22;7652;53.584;9.998;2022-08-11T07:03:41;22.40;99.90
15103;DHT22;7652;53.584;9.998;2022-08-11T07:06:56;22.40;99.90
15103;DHT22;7652;53.584;9.998;2022-08-11T07:10:41;22.40;99.90
15103;DHT22;7652;53.584;9.998;2022-08-11T07:14:05;22.50;99.90
15103;DHT22;7652;53.584;9.998;2022-08-11T07:17:27;22.60;99.90
15103;DHT22;7652;53.584;9.998;2022-08-11T07:20:34;22.70;99.90
15103;DHT22;7652;53.584;9.998;2022-08-11T07:24:05;22.70;99.90
15103;DHT22;7652;53.584;9.998;2022-08-11T07:27:55;22.90;99.90
15103;DHT22;7652;53.584;9.998;2022-08-11T07:31:23;23.10;99.90
15103;DHT22;7652;53.584;9.998;2022-08-11T07:34:31;23.30;99.90
15103;DHT22;7652;53.584;9.998;2022-08-11T07:37:36;23.60;99.90
15103;DHT22;7652;53.584;9.998;2022-08-11T07:40:39;23.90;99.90
15103;DHT22;7652;53.584;9.998;2022-08-11T07:43:48;23.90;99.90
15103;DHT22;7652;53.584;9.998;2022-08-11T07:46:52;23.90;99.90
15103;DHT22;7652;53.584;9.998;2022-08-11T07:50:13;24.00;99.90
15103;DHT22;7652;53.584;9.998;2022-08-11T07:53:35;24.30;99.90
15103;DHT22;7652;53.584;9.998;2022-08-11T07:56:59;24.50;99.90
15103;DHT22;7652;53.584;9.998;2022-08-11T08:00:14;24.80;99.90
15103;DHT22;7652;53.584;9.998;2022-08-11T08:03:36;25.10;99.90
15103;DHT22;7652;53.584;9.998;2022-08-11T08:07:00;25.40;99.90
15103;DHT22;7652;53.584;9.998;2022-08-11T08:10:22;25.80;99.90
15103;DHT22;7652;53.584;9.998;2022-08-11T08:13:44;25.90;99.90
15103;DHT22;7652;53.584;9.998;2022-08-11T08:17:07;25.80;99.90
15103;DHT22;7652;53.584;9.998;2022-08-11T08:20:31;25.70;99.90
15103;DHT22;7652;53.584;9.998;2022-08-11T08:23:37;25.60;99.90
15103;DHT22;7652;53.584;9.998;2022-08-11T08:26:42;25.60;99.90
15103;DHT22;7652;53.584;9.998;2022-08-11T08:30:01;25.60;99.90
15103;DHT22;7652;53.584;9.998;2022-08-11T08:33:25;25.70;99.90
15103;DHT22;7652;53.584;9.998;2022-08-11T08:36:29;25.80;99.90
15103;DHT22;7652;53.584;9.998;2022-08-11T08:39:32;25.90;99.90
15103;DHT22;7652;53.584;9.998;2022-08-11T08:42:42;26.00;99.90
15103;DHT22;7652;53.584;9.998;2022-08-11T08:45:48;26.20;99.90
15103;DHT22;7652;53.584;9.998;2022-08-11T08:48:54;26.30;99.90
15103;DHT22;7652;53.584;9.998;2022-08-11T08:52:02;26.30;99.90
15103;DHT22;7652;53.584;9.998;2022-08-11T08:55:27;26.30;99.90
15103;DHT22;7652;53.584;9.998;2022-08-11T08:58:34;26.30;99.90
15103;DHT22;7652;53.584;9.998;2022-08-11T09:01:42;26.40;99.90
15103;DHT22;7652;53.584;9.998;2022-08-11T09:04:49;26.40;99.90
15103;DHT22;7652;53.584;9.998;2022-08-11T09:07:53;26.40;99.90
15103;DHT22;7652;53.584;9.998;2022-08-11T09:10:59;26.40;99.90
15103;DHT22;7652;53.584;9.998;2022-08-11T09:14:23;26.40;99.90
15103;DHT22;7652;53.584;9.998;2022-08-11T09:17:48;26.50;99.90
15103;DHT22;7652;53.584;9.998;2022-08-11T09:20:53;26.50;99.70
15103;DHT22;7652;53.584;9.998;2022-08-11T09:23:57;26.70;99.40
15103;DHT22;7652;53.584;9.998;2022-08-11T09:27:27;26.80;99.70
15103;DHT22;7652;53.584;9.998;2022-08-11T09:30:30;26.70;98.20
15103;DHT22;7652;53.584;9.998;2022-08-11T09:33:34;26.70;97.90
15103;DHT22;7652;53.584;9.998;2022-08-11T09:36:42;26.80;98.30
15103;DHT22;7652;53.584;9.998;2022-08-11T09:40:04;26.80;97.70
15103;DHT22;7652;53.584;9.998;2022-08-11T09:43:28;26.80;98.20
15103;DHT22;7652;53.584;9.998;2022-08-11T09:46:50;26.90;97.30
15103;DHT22;7652;53.584;9.998;2022-08-11T09:49:58;26.90;96.90
15103;DHT22;7652;53.584;9.998;2022-08-11T09:53:04;26.90;96.80
15103;DHT22;7652;53.584;9.998;2022-08-11T09:56:28;27.00;97.10
15103;DHT22;7652;53.584;9.998;2022-08-11T09:59:51;27.00;97.10
15103;DHT22;7652;53.584;9.998;2022-08-11T10:03:15;27.00;97.20
15103;DHT22;7652;53.584;9.998;2022-08-11T10:06:19;27.10;96.70
15103;DHT22;7652;53.584;9.998;2022-08-11T10:09:45;27.20;96.40
15103;DHT22;7652;53.584;9.998;2022-08-11T10:12:55;27.30;96.50
15103;DHT22;7652;53.584;9.998;2022-08-11T10:16:02;27.30;95.90
15103;DHT22;7652;53.584;9.998;2022-08-11T10:19:18;27.40;96.20
15103;DHT22;7652;53.584;9.998;2022-08-11T10:22:23;27.50;95.90
15103;DHT22;7652;53.584;9.998;2022-08-11T10:26:01;27.60;96.70
15103;DHT22;7652;53.584;9.998;2022-08-11T10:29:36;27.60;95.80
15103;DHT22;7652;53.584;9.998;2022-08-11T10:32:58;27.80;96.00
15103;DHT22;7652;53.584;9.998;2022-08-11T10:36:40;27.80;95.70
15103;DHT22;7652;53.584;9.998;2022-08-11T10:39:45;27.90;95.00
15103;DHT22;7652;53.584;9.998;2022-08-11T10:42:54;28.10;94.60
15103;DHT22;7652;53.584;9.998;2022-08-11T10:46:09;28.20;94.30
15103;DHT22;7652;53.584;9.998;2022-08-11T10:49:31;28.30;93.90
15103;DHT22;7652;53.584;9.998;2022-08-11T10:52:36;28.50;93.70
15103;DHT22;7652;53.584;9.998;2022-08-11T10:55:57;28.70;92.20
15103;DHT22;7652;53.584;9.998;2022-08-11T10:59:20;28.80;91.90
15103;DHT22;7652;53.584;9.998;2022-08-11T11:02:24;28.90;91.90
15103;DHT22;7652;53.584;9.998;2022-08-11T11:05:30;28.90;91.50
15103;DHT22;7652;53.584;9.998;2022-08-11T11:08:35;28.90;91.00
15103;DHT22;7652;53.584;9.998;2022-08-11T11:12:05;28.80;92.20
15103;DHT22;7652;53.584;9.998;2022-08-11T11:15:31;28.80;92.30
15103;DHT22;7652;53.584;9.998;2022-08-11T11:18:56;28.80;92.20
15103;DHT22;7652;53.584;9.998;2022-08-11T11:22:02;28.80;91.60
15103;DHT22;7652;53.584;9.998;2022-08-11T11:26:11;28.90;92.00
15103;DHT22;7652;53.584;9.998;2022-08-11T11:29:38;28.80;90.90
15103;DHT22;7652;53.584;9.998;2022-08-11T11:32:48;28.80;90.50
15103;DHT22;7652;53.584;9.998;2022-08-11T11:36:09;28.90;89.70
15103;DHT22;7652;53.584;9.998;2022-08-11T11:39:16;29.10;89.70
15103;DHT22;7652;53.584;9.998;2022-08-11T11:42:21;29.20;88.20
15103;DHT22;7652;53.584;9.998;2022-08-11T11:45:24;29.30;89.10
15103;DHT22;7652;53.584;9.998;2022-08-11T11:48:29;29.30;87.80
15103;DHT22;7652;53.584;9.998;2022-08-11T11:51:33;29.40;88.80
15103;DHT22;7652;53.584;9.998;2022-08-11T11:54:36;29.50;87.40
15103;DHT22;7652;53.584;9.998;2022-08-11T11:57:41;29.50;86.90
15103;DHT22;7652;53.584;9.998;2022-08-11T12:01:04;29.60;86.60
15103;DHT22;7652;53.584;9.998;2022-08-11T12:04:22;29.50;86.80
15103;DHT22;7652;53.584;9.998;2022-08-11T12:07:25;29.60;85.00
15103;DHT22;7652;53.584;9.998;2022-08-11T12:11:00;29.70;83.50
15103;DHT22;7652;53.584;9.998;2022-08-11T12:14:21;29.70;79.60
15103;DHT22;7652;53.584;9.998;2022-08-11T12:17:28;29.80;79.90
15103;DHT22;7652;53.584;9.998;2022-08-11T12:20:33;30.00;80.20
15103;DHT22;7652;53.584;9.998;2022-08-11T12:23:37;30.60;79.90
15103;DHT22;7652;53.584;9.998;2022-08-11T12:27:04;31.10;78.60
15103;DHT22;7652;53.584;9.998;2022-08-11T12:30:26;31.70;75.10
15103;DHT22;7652;53.584;9.998;2022-08-11T12:33:30;31.90;75.20
15103;DHT22;7652;53.584;9.998;2022-08-11T12:36:40;31.70;74.30
15103;DHT22;7652;53.584;9.998;2022-08-11T12:39:45;31.60;74.80
15103;DHT22;7652;53.584;9.998;2022-08-11T12:43:29;31.40;73.30
15103;DHT22;7652;53.584;9.998;2022-08-11T12:46:59;31.40;73.90
15103;DHT22;7652;53.584;9.998;2022-08-11T12:50:04;31.50;74.10
15103;DHT22;7652;53.584;9.998;2022-08-11T12:53:27;31.70;72.70
15103;DHT22;7652;53.584;9.998;2022-08-11T12:56:37;32.10;69.70
15103;DHT22;7652;53.584;9.998;2022-08-11T12:59:59;33.00;68.40
15103;DHT22;7652;53.584;9.998;2022-08-11T13:03:21;34.50;64.40
15103;DHT22;7652;53.584;9.998;2022-08-11T13:06:43;35.70;60.70
15103;DHT22;7652;53.584;9.998;2022-08-11T13:09:49;36.50;57.80
15103;DHT22;7652;53.584;9.998;2022-08-11T13:12:52;36.60;56.40
15103;DHT22;7652;53.584;9.998;2022-08-11T13:15:54;37.10;54.20
15103;DHT22;7652;53.584;9.998;2022-08-11T13:18:59;37.00;53.60
15103;DHT22;7652;53.584;9.998;2022-08-11T13:22:03;37.10;54.10
15103;DHT22;7652;53.584;9.998;2022-08-11T13:25:09;36.60;54.40
15103;DHT22;7652;53.584;9.998;2022-08-11T13:28:17;36.10;54.60
15103;DHT22;7652;53.584;9.998;2022-08-11T13:31:22;36.00;54.10
15103;DHT22;7652;53.584;9.998;2022-08-11T13:34:26;35.40;55.30
15103;DHT22;7652;53.584;9.998;2022-08-11T13:37:31;35.10;55.60
15103;DHT22;7652;53.584;9.998;2022-08-11T13:40:58;34.00;56.90
15103;DHT22;7652;53.584;9.998;2022-08-11T13:44:02;33.30;58.50
15103;DHT22;7652;53.584;9.998;2022-08-11T13:47:06;32.60;59.30
15103;DHT22;7652;53.584;9.998;2022-08-11T13:50:10;32.20;60.00
15103;DHT22;7652;53.584;9.998;2022-08-11T13:53:16;32.00;60.40
15103;DHT22;7652;53.584;9.998;2022-08-11T13:56:23;32.00;60.40
15103;DHT22;7652;53.584;9.998;2022-08-11T13:59:27;31.80;60.90
15103;DHT22;7652;53.584;9.998;2022-08-11T14:02:32;31.60;60.10
15103;DHT22;7652;53.584;9.998;2022-08-11T14:05:38;31.50;61.50
15103;DHT22;7652;53.584;9.998;2022-08-11T14:08:49;31.30;61.30
15103;DHT22;7652;53.584;9.998;2022-08-11T14:12:00;31.10;61.80
15103;DHT22;7652;53.584;9.998;2022-08-11T14:15:29;30.90;62.40
15103;DHT22;7652;53.584;9.998;2022-08-11T14:18:34;30.90;62.50
15103;DHT22;7652;53.584;9.998;2022-08-11T14:21:41;30.90;62.50
15103;DHT22;7652;53.584;9.998;2022-08-11T14:25:08;31.00;64.30
15103;DHT22;7652;53.584;9.998;2022-08-11T14:28:15;30.90;62.00
15103;DHT22;7652;53.584;9.998;2022-08-11T14:31:39;30.90;62.10
15103;DHT22;7652;53.584;9.998;2022-08-11T14:34:45;30.80;62.20
15103;DHT22;7652;53.584;9.998;2022-08-11T14:37:48;30.80;62.20
15103;DHT22;7652;53.584;9.998;2022-08-11T14:40:51;30.70;62.50
15103;DHT22;7652;53.584;9.998;2022-08-11T14:44:14;30.70;63.10
15103;DHT22;7652;53.584;9.998;2022-08-11T14:47:36;30.70;63.40
15103;DHT22;7652;53.584;9.998;2022-08-11T14:50:41;30.70;62.70
15103;DHT22;7652;53.584;9.998;2022-08-11T14:53:44;30.60;62.50
15103;DHT22;7652;53.584;9.998;2022-08-11T14:57:00;30.60;63.80
15103;DHT22;7652;53.584;9.998;2022-08-11T15:00:07;30.60;63.50
15103;DHT22;7652;53.584;9.998;2022-08-11T15:03:14;30.60;63.40
15103;DHT22;7652;53.584;9.998;2022-08-11T15:06:18;30.50;63.60
15103;DHT22;7652;53.584;9.998;2022-08-11T15:09:21;30.50;64.00
15103;DHT22;7652;53.584;9.998;2022-08-11T15:12:25;30.50;65.30
15103;DHT22;7652;53.584;9.998;2022-08-11T15:15:36;30.40;66.20
15103;DHT22;7652;53.584;9.998;2022-08-11T15:18:56;30.30;65.60
15103;DHT22;7652;53.584;9.998;2022-08-11T15:22:00;30.20;66.40
15103;DHT22;7652;53.584;9.998;2022-08-11T15:25:29;30.10;66.90
15103;DHT22;7652;53.584;9.998;2022-08-11T15:28:38;30.10;68.20
15103;DHT22;7652;53.584;9.998;2022-08-11T15:32:00;30.00;68.60
15103;DHT22;7652;53.584;9.998;2022-08-11T15:35:21;30.00;69.80
15103;DHT22;7652;53.584;9.998;2022-08-11T15:38:46;29.90;69.10
15103;DHT22;7652;53.584;9.998;2022-08-11T15:42:00;29.80;70.50
15103;DHT22;7652;53.584;9.998;2022-08-11T15:45:21;29.80;70.20
15103;DHT22;7652;53.584;9.998;2022-08-11T15:48:47;29.70;70.00
15103;DHT22;7652;53.584;9.998;2022-08-11T15:52:02;29.70;70.40
15103;DHT22;7652;53.584;9.998;2022-08-11T15:55:07;29.60;70.90
15103;DHT22;7652;53.584;9.998;2022-08-11T15:58:11;29.50;71.30
15103;DHT22;7652;53.584;9.998;2022-08-11T16:01:33;29.50;71.50
15103;DHT22;7652;53.584;9.998;2022-08-11T16:04:57;29.50;71.30
15103;DHT22;7652;53.584;9.998;2022-08-11T16:08:03;29.40;71.60
15103;DHT22;7652;53.584;9.998;2022-08-11T16:11:07;29.40;72.00
15103;DHT22;7652;53.584;9.998;2022-08-11T16:14:11;29.40;72.20
15103;DHT22;7652;53.584;9.998;2022-08-11T16:17:36;29.30;71.60
15103;DHT22;7652;53.584;9.998;2022-08-11T16:20:43;29.20;72.70
15103;DHT22;7652;53.584;9.998;2022-08-11T16:23:47;29.20;72.30
15103;DHT22;7652;53.584;9.998;2022-08-11T16:26:51;29.20;71.60
15103;DHT22;7652;53.584;9.998;2022-08-11T16:30:13;29.10;72.40
15103;DHT22;7652;53.584;9.998;2022-08-11T16:33:17;29.00;73.10
15103;DHT22;7652;53.584;9.998;2022-08-11T16:36:45;29.00;73.50
15103;DHT22;7652;53.584;9.998;2022-08-11T16:40:06;28.90;73.90
15103;DHT22;7652;53.584;9.998;2022-08-11T16:43:14;28.90;73.90
15103;DHT22;7652;53.584;9.998;2022-08-11T16:46:36;28.80;74.00
15103;DHT22;7652;53.584;9.998;2022-08-11T16:49:57;28.70;73.90
15103;DHT22;7652;53.584;9.998;2022-08-11T16:53:02;28.70;74.50
15103;DHT22;7652;53.584;9.998;2022-08-11T16:56:06;28.60;74.60
15103;DHT22;7652;53.584;9.998;2022-08-11T16:59:16;28.60;75.10
15103;DHT22;7652;53.584;9.998;2022-08-11T17:02:22;28.50;75.10
15103;DHT22;7652;53.584;9.998;2022-08-11T17:05:44;28.40;75.30
15103;DHT22;7652;53.584;9.998;2022-08-11T17:09:22;28.30;76.10
15103;DHT22;7652;53.584;9.998;2022-08-11T17:12:46;28.20;75.70
15103;DHT22;7652;53.584;9.998;2022-08-11T17:16:11;28.20;76.00
15103;DHT22;7652;53.584;9.998;2022-08-11T17:19:19;28.10;76.70
15103;DHT22;7652;53.584;9.998;2022-08-11T17:22:44;28.00;76.50
15103;DHT22;7652;53.584;9.998;2022-08-11T17:26:06;27.90;76.70
15103;DHT22;7652;53.584;9.998;2022-08-11T17:29:10;27.80;76.40
15103;DHT22;7652;53.584;9.998;2022-08-11T17:32:16;27.70;77.20
15103;DHT22;7652;53.584;9.998;2022-08-11T17:35:58;27.70;77.30
15103;DHT22;7652;53.584;9.998;2022-08-11T17:39:02;27.60;77.90
15103;DHT22;7652;53.584;9.998;2022-08-11T17:42:08;27.60;78.30
15103;DHT22;7652;53.584;9.998;2022-08-11T17:45:29;27.40;78.20
15103;DHT22;7652;53.584;9.998;2022-08-11T17:48:56;27.40;78.40
15103;DHT22;7652;53.584;9.998;2022-08-11T17:51:59;27.30;77.60
15103;DHT22;7652;53.584;9.998;2022-08-11T17:55:22;27.20;77.90
15103;DHT22;7652;53.584;9.998;2022-08-11T17:58:55;27.20;76.50
15103;DHT22;7652;53.584;9.998;2022-08-11T18:02:20;27.00;76.70
15103;DHT22;7652;53.584;9.998;2022-08-11T18:05:42;26.90;75.90
15103;DHT22;7652;53.584;9.998;2022-08-11T18:08:47;26.90;74.30
15103;DHT22;7652;53.584;9.998;2022-08-11T18:12:10;26.80;74.70
15103;DHT22;7652;53.584;9.998;2022-08-11T18:15:33;26.80;75.10
15103;DHT22;7652;53.584;9.998;2022-08-11T18:18:57;26.70;75.00
15103;DHT22;7652;53.584;9.998;2022-08-11T18:22:20;26.70;75.30
15103;DHT22;7652;53.584;9.998;2022-08-11T18:25:44;26.60;76.20
15103;DHT22;7652;53.584;9.998;2022-08-11T18:29:09;26.50;76.90
15103;DHT22;7652;53.584;9.998;2022-08-11T18:32:46;26.40;77.80
15103;DHT22;7652;53.584;9.998;2022-08-11T18:36:30;26.30;78.50
15103;DHT22;7652;53.584;9.998;2022-08-11T18:39:57;26.20;79.50
15103;DHT22;7652;53.584;9.998;2022-08-11T18:43:21;26.10;80.30
15103;DHT22;7652;53.584;9.998;2022-08-11T18:46:44;26.10;80.90
15103;DHT22;7652;53.584;9.998;2022-08-11T18:50:12;26.00;81.00
15103;DHT22;7652;53.584;9.998;2022-08-11T18:53:43;25.90;81.60
15103;DHT22;7652;53.584;9.998;2022-08-11T18:57:05;25.70;82.30
15103;DHT22;7652;53.584;9.998;2022-08-11T19:00:27;25.70;83.20
15103;DHT22;7652;53.584;9.998;2022-08-11T19:03:49;25.50;84.10
15103;DHT22;7652;53.584;9.998;2022-08-11T19:07:19;25.40;84.10
15103;DHT22;7652;53.584;9.998;2022-08-11T19:10:41;25.30;84.70
15103;DHT22;7652;53.584;9.998;2022-08-11T19:14:03;25.30;85.50
15103;DHT22;7652;53.584;9.998;2022-08-11T19:17:29;25.20;85.90
15103;DHT22;7652;53.584;9.998;2022-08-11T19:20:51;25.10;86.40
15103;DHT22;7652;53.584;9.998;2022-08-11T19:24:15;25.00;86.80
15103;DHT22;7652;53.584;9.998;2022-08-11T19:27:37;24.80;87.00
15103;DHT22;7652;53.584;9.998;2022-08-11T19:30:59;24.80;86.50
15103;DHT22;7652;53.584;9.998;2022-08-11T19:34:21;24.70;86.90
15103;DHT22;7652;53.584;9.998;2022-08-11T19:37:42;24.60;87.20
15103;DHT22;7652;53.584;9.998;2022-08-11T19:41:05;24.50;88.00
15103;DHT22;7652;53.584;9.998;2022-08-11T19:44:46;24.40;87.70
15103;DHT22;7652;53.584;9.998;2022-08-11T19:48:08;24.40;88.30
15103;DHT22;7652;53.584;9.998;2022-08-11T19:51:34;24.30;89.10
15103;DHT22;7652;53.584;9.998;2022-08-11T19:54:56;24.20;90.00
15103;DHT22;7652;53.584;9.998;2022-08-11T19:58:19;24.10;90.40
15103;DHT22;7652;53.584;9.998;2022-08-11T20:01:40;24.00;91.00
15103;DHT22;7652;53.584;9.998;2022-08-11T20:05:15;23.90;91.20
15103;DHT22;7652;53.584;9.998;2022-08-11T20:08:40;23.80;91.70
15103;DHT22;7652;53.584;9.998;2022-08-11T20:12:02;23.70;92.10
15103;DHT22;7652;53.584;9.998;2022-08-11T20:15:27;23.70;92.20
15103;DHT22;7652;53.584;9.998;2022-08-11T20:18:49;23.60;92.40
15103;DHT22;7652;53.584;9.998;2022-08-11T20:22:11;23.60;92.70
15103;DHT22;7652;53.584;9.998;2022-08-11T20:25:33;23.50;93.10
15103;DHT22;7652;53.584;9.998;2022-08-11T20:29:10;23.50;93.40
15103;DHT22;7652;53.584;9.998;2022-08-11T20:32:32;23.40;93.90
15103;DHT22;7652;53.584;9.998;2022-08-11T20:35:53;23.30;94.40
15103;DHT22;7652;53.584;9.998;2022-08-11T20:39:14;23.30;94.90
15103;DHT22;7652;53.584;9.998;2022-08-11T20:42:37;23.20;95.30
15103;DHT22;7652;53.584;9.998;2022-08-11T20:46:00;23.00;95.90
15103;DHT22;7652;53.584;9.998;2022-08-11T20:49:23;22.90;96.50
15103;DHT22;7652;53.584;9.998;2022-08-11T20:52:55;22.80;97.20
15103;DHT22;7652;53.584;9.998;2022-08-11T20:56:17;22.70;98.00
15103;DHT22;7652;53.584;9.998;2022-08-11T20:59:38;22.60;98.50
15103;DHT22;7652;53.584;9.998;2022-08-11T21:03:00;22.60;99.10
15103;DHT22;7652;53.584;9.998;2022-08-11T21:06:43;22.50;99.70
15103;DHT22;7652;53.584;9.998;2022-08-11T21:10:06;22.60;99.90
15103;DHT22;7652;53.584;9.998;2022-08-11T21:13:34;22.50;99.90
15103;DHT22;7652;53.584;9.998;2022-08-11T21:16:59;22.50;99.90
15103;DHT22;7652;53.584;9.998;2022-08-11T21:20:29;22.40;99.90
15103;DHT22;7652;53.584;9.998;2022-08-11T21:23:53;22.40;99.90
15103;DHT22;7652;53.584;9.998;2022-08-11T21:27:17;22.40;99.90
15103;DHT22;7652;53.584;9.998;2022-08-11T21:30:39;22.30;99.90